sensor_id;sensor_type;location;lat;lon;timestamp;temperature;humidity
64685;DHT22;51109;47.414;18.954;2024-03-17T00:00:22;11.10;99.90
64685;DHT22;51109;47.414;18.954;2024-03-17T00:02:48;11.10;99.90
64685;DHT22;51109;47.414;18.954;2024-03-17T00:05:14;11.10;99.90
64685;DHT22;51109;47.414;18.954;2024-03-17T00:07:40;11.10;99.90
64685;DHT22;51109;47.414;18.954;2024-03-17T00:10:06;11.10;99.90
64685;DHT22;51109;47.414;18.954;2024-03-17T00:12:36;11.10;99.90
64685;DHT22;51109;47.414;18.954;2024-03-17T00:15:03;11.00;99.90
64685;DHT22;51109;47.414;18.954;2024-03-17T00:17:29;11.00;99.90
64685;DHT22;51109;47.414;18.954;2024-03-17T00:19:55;10.90;99.90
64685;DHT22;51109;47.414;18.954;2024-03-17T00:22:21;10.90;99.90
64685;DHT22;51109;47.414;18.954;2024-03-17T00:24:46;10.90;99.90
64685;DHT22;51109;47.414;18.954;2024-03-17T00:27:12;10.90;99.90
64685;DHT22;51109;47.414;18.954;2024-03-17T00:29:39;10.80;99.90
64685;DHT22;51109;47.414;18.954;2024-03-17T00:32:06;10.80;99.90
64685;DHT22;51109;47.414;18.954;2024-03-17T00:34:32;10.80;99.90
64685;DHT22;51109;47.414;18.954;2024-03-17T00:36:57;10.80;99.90
64685;DHT22;51109;47.414;18.954;2024-03-17T00:39:25;10.70;99.90
64685;DHT22;51109;47.414;18.954;2024-03-17T00:41:51;10.70;99.90
64685;DHT22;51109;47.414;18.954;2024-03-17T00:44:17;10.60;99.90
64685;DHT22;51109;47.414;18.954;2024-03-17T00:46:43;10.60;99.90
64685;DHT22;51109;47.414;18.954;2024-03-17T00:49:12;10.50;99.90
64685;DHT22;51109;47.414;18.954;2024-03-17T00:51:38;10.60;99.90
64685;DHT22;51109;47.414;18.954;2024-03-17T00:54:04;10.60;99.90
64685;DHT22;51109;47.414;18.954;2024-03-17T00:56:30;10.50;99.90
64685;DHT22;51109;47.414;18.954;2024-03-17T00:58:56;10.50;99.90
64685;DHT22;51109;47.414;18.954;2024-03-17T01:01:22;10.50;99.90
64685;DHT22;51109;47.414;18.954;2024-03-17T01:03:48;10.40;99.90
64685;DHT22;51109;47.414;18.954;2024-03-17T01:06:14;10.30;99.90
64685;DHT22;51109;47.414;18.954;2024-03-17T01:08:40;10.30;99.90
64685;DHT22;51109;47.414;18.954;2024-03-17T01:11:06;10.30;99.90
64685;DHT22;51109;47.414;18.954;2024-03-17T01:13:35;10.30;99.90
64685;DHT22;51109;47.414;18.954;2024-03-17T01:16:07;10.30;99.90
64685;DHT22;51109;47.414;18.954;2024-03-17T01:18:33;10.30;99.90
64685;DHT22;51109;47.414;18.954;2024-03-17T01:21:00;10.30;99.90
64685;DHT22;51109;47.414;18.954;2024-03-17T01:23:26;10.30;99.90
64685;DHT22;51109;47.414;18.954;2024-03-17T01:25:51;10.30;99.90
64685;DHT22;51109;47.414;18.954;2024-03-17T01:28:17;10.20;99.90
64685;DHT22;51109;47.414;18.954;2024-03-17T01:30:43;10.10;99.90
64685;DHT22;51109;47.414;18.954;2024-03-17T01:33:09;10.30;99.90
64685;DHT22;51109;47.414;18.954;2024-03-17T01:35:36;10.10;99.90
64685;DHT22;51109;47.414;18.954;2024-03-17T01:38:01;10.00;99.90
64685;DHT22;51109;47.414;18.954;2024-03-17T01:40:27;10.00;99.90
64685;DHT22;51109;47.414;18.954;2024-03-17T01:42:53;10.00;99.90
64685;DHT22;51109;47.414;18.954;2024-03-17T01:45:28;10.10;99.90
64685;DHT22;51109;47.414;18.954;2024-03-17T01:47:55;10.10;99.90
64685;DHT22;51109;47.414;18.954;2024-03-17T01:50:31;10.20;99.90
64685;DHT22;51109;47.414;18.954;2024-03-17T01:52:58;10.10;99.90
64685;DHT22;51109;47.414;18.954;2024-03-17T01:55:26;10.10;99.90
64685;DHT22;51109;47.414;18.954;2024-03-17T01:57:53;10.10;99.90
64685;DHT22;51109;47.414;18.954;2024-03-17T02:00:19;10.10;99.90
64685;DHT22;51109;47.414;18.954;2024-03-17T02:02:45;10.10;99.90
64685;DHT22;51109;47.414;18.954;2024-03-17T02:05:11;11.80;99.90
64685;DHT22;51109;47.414;18.954;2024-03-17T02:07:37;10.00;99.90
64685;DHT22;51109;47.414;18.954;2024-03-17T02:10:03;10.00;99.90
64685;DHT22;51109;47.414;18.954;2024-03-17T02:12:32;10.00;99.90
64685;DHT22;51109;47.414;18.954;2024-03-17T02:14:58;10.20;99.90
64685;DHT22;51109;47.414;18.954;2024-03-17T02:17:24;10.10;99.90
64685;DHT22;51109;47.414;18.954;2024-03-17T02:19:54;11.10;99.90
64685;DHT22;51109;47.414;18.954;2024-03-17T02:22:20;10.60;99.90
64685;DHT22;51109;47.414;18.954;2024-03-17T02:24:46;12.20;99.90
64685;DHT22;51109;47.414;18.954;2024-03-17T02:27:12;12.30;99.90
64685;DHT22;51109;47.414;18.954;2024-03-17T02:29:38;11.00;99.90
64685;DHT22;51109;47.414;18.954;2024-03-17T02:32:05;10.40;99.90
64685;DHT22;51109;47.414;18.954;2024-03-17T02:34:36;10.00;99.90
64685;DHT22;51109;47.414;18.954;2024-03-17T02:37:03;10.00;99.90
64685;DHT22;51109;47.414;18.954;2024-03-17T02:39:30;10.00;99.90
64685;DHT22;51109;47.414;18.954;2024-03-17T02:42:07;9.80;99.90
64685;DHT22;51109;47.414;18.954;2024-03-17T02:44:34;9.80;99.90
64685;DHT22;51109;47.414;18.954;2024-03-17T02:47:00;9.70;99.90
64685;DHT22;51109;47.414;18.954;2024-03-17T02:49:31;9.70;99.90
64685;DHT22;51109;47.414;18.954;2024-03-17T02:52:10;9.70;99.90
64685;DHT22;51109;47.414;18.954;2024-03-17T02:54:38;9.70;99.90
64685;DHT22;51109;47.414;18.954;2024-03-17T02:57:04;9.60;99.90
64685;DHT22;51109;47.414;18.954;2024-03-17T02:59:30;9.60;99.90
64685;DHT22;51109;47.414;18.954;2024-03-17T03:01:57;9.50;99.90
64685;DHT22;51109;47.414;18.954;2024-03-17T03:04:23;9.50;99.90
64685;DHT22;51109;47.414;18.954;2024-03-17T03:06:49;9.40;99.90
64685;DHT22;51109;47.414;18.954;2024-03-17T03:09:15;9.50;99.90
64685;DHT22;51109;47.414;18.954;2024-03-17T03:11:52;9.50;99.90
64685;DHT22;51109;47.414;18.954;2024-03-17T03:14:26;9.50;99.90
64685;DHT22;51109;47.414;18.954;2024-03-17T03:16:52;9.50;99.90
64685;DHT22;51109;47.414;18.954;2024-03-17T03:19:18;9.60;99.90
64685;DHT22;51109;47.414;18.954;2024-03-17T03:21:45;9.50;99.90
64685;DHT22;51109;47.414;18.954;2024-03-17T03:24:11;9.60;99.90
64685;DHT22;51109;47.414;18.954;2024-03-17T03:26:37;9.50;99.90
64685;DHT22;51109;47.414;18.954;2024-03-17T03:29:04;9.50;99.90
64685;DHT22;51109;47.414;18.954;2024-03-17T03:31:33;9.40;99.90
64685;DHT22;51109;47.414;18.954;2024-03-17T03:34:05;9.50;99.90
64685;DHT22;51109;47.414;18.954;2024-03-17T03:36:40;9.40;99.90
64685;DHT22;51109;47.414;18.954;2024-03-17T03:39:16;9.40;99.90
64685;DHT22;51109;47.414;18.954;2024-03-17T03:41:54;9.30;99.90
64685;DHT22;51109;47.414;18.954;2024-03-17T03:44:26;9.30;99.90
64685;DHT22;51109;47.414;18.954;2024-03-17T03:46:52;9.30;99.90
64685;DHT22;51109;47.414;18.954;2024-03-17T03:49:24;9.30;99.90
64685;DHT22;51109;47.414;18.954;2024-03-17T03:51:50;9.20;99.90
64685;DHT22;51109;47.414;18.954;2024-03-17T03:54:16;9.20;99.90
64685;DHT22;51109;47.414;18.954;2024-03-17T03:56:42;9.20;99.90
64685;DHT22;51109;47.414;18.954;2024-03-17T03:59:07;9.20;99.90
64685;DHT22;51109;47.414;18.954;2024-03-17T04:01:39;9.20;99.90
64685;DHT22;51109;47.414;18.954;2024-03-17T04:04:05;9.20;99.90
64685;DHT22;51109;47.414;18.954;2024-03-17T04:06:33;9.10;99.90
64685;DHT22;51109;47.414;18.954;2024-03-17T04:09:09;9.10;99.90
64685;DHT22;51109;47.414;18.954;2024-03-17T04:12:03;9.10;99.90
64685;DHT22;51109;47.414;18.954;2024-03-17T04:14:32;9.00;99.90
64685;DHT22;51109;47.414;18.954;2024-03-17T04:17:01;9.00;99.90
64685;DHT22;51109;47.414;18.954;2024-03-17T04:19:26;8.90;99.90
64685;DHT22;51109;47.414;18.954;2024-03-17T04:21:55;9.00;99.90
64685;DHT22;51109;47.414;18.954;2024-03-17T04:24:21;8.90;99.90
64685;DHT22;51109;47.414;18.954;2024-03-17T04:26:47;9.00;99.90
64685;DHT22;51109;47.414;18.954;2024-03-17T04:29:14;8.90;99.90
64685;DHT22;51109;47.414;18.954;2024-03-17T04:31:40;9.00;99.90
64685;DHT22;51109;47.414;18.954;2024-03-17T04:34:07;8.70;99.90
64685;DHT22;51109;47.414;18.954;2024-03-17T04:36:52;8.90;99.90
64685;DHT22;51109;47.414;18.954;2024-03-17T04:39:19;8.90;99.90
64685;DHT22;51109;47.414;18.954;2024-03-17T04:41:57;8.80;99.90
64685;DHT22;51109;47.414;18.954;2024-03-17T04:44:38;8.90;99.90
64685;DHT22;51109;47.414;18.954;2024-03-17T04:47:04;8.80;99.90
64685;DHT22;51109;47.414;18.954;2024-03-17T04:49:43;8.80;99.90
64685;DHT22;51109;47.414;18.954;2024-03-17T04:52:12;8.80;99.90
64685;DHT22;51109;47.414;18.954;2024-03-17T04:54:38;8.70;99.90
64685;DHT22;51109;47.414;18.954;2024-03-17T04:57:04;8.60;99.90
64685;DHT22;51109;47.414;18.954;2024-03-17T04:59:33;8.60;99.90
64685;DHT22;51109;47.414;18.954;2024-03-17T05:01:59;8.60;99.90
64685;DHT22;51109;47.414;18.954;2024-03-17T05:04:25;8.50;99.90
64685;DHT22;51109;47.414;18.954;2024-03-17T05:06:50;8.50;99.90
64685;DHT22;51109;47.414;18.954;2024-03-17T05:09:17;8.50;99.90
64685;DHT22;51109;47.414;18.954;2024-03-17T05:11:43;8.50;99.90
64685;DHT22;51109;47.414;18.954;2024-03-17T05:14:09;8.50;99.90
64685;DHT22;51109;47.414;18.954;2024-03-17T05:16:35;8.40;99.90
64685;DHT22;51109;47.414;18.954;2024-03-17T05:19:01;8.40;99.90
64685;DHT22;51109;47.414;18.954;2024-03-17T05:21:27;8.40;99.90
64685;DHT22;51109;47.414;18.954;2024-03-17T05:23:56;8.40;99.90
64685;DHT22;51109;47.414;18.954;2024-03-17T05:26:26;8.30;99.90
64685;DHT22;51109;47.414;18.954;2024-03-17T05:28:52;8.30;99.90
64685;DHT22;51109;47.414;18.954;2024-03-17T05:31:19;8.30;99.90
64685;DHT22;51109;47.414;18.954;2024-03-17T05:33:47;8.30;99.90
64685;DHT22;51109;47.414;18.954;2024-03-17T05:36:13;8.20;99.90
64685;DHT22;51109;47.414;18.954;2024-03-17T05:38:39;8.20;99.90
64685;DHT22;51109;47.414;18.954;2024-03-17T05:41:07;8.20;99.90
64685;DHT22;51109;47.414;18.954;2024-03-17T05:43:34;8.20;99.90
64685;DHT22;51109;47.414;18.954;2024-03-17T05:46:11;8.30;99.90
64685;DHT22;51109;47.414;18.954;2024-03-17T05:48:39;8.30;99.90
64685;DHT22;51109;47.414;18.954;2024-03-17T05:51:12;8.30;99.90
64685;DHT22;51109;47.414;18.954;2024-03-17T05:53:39;8.40;99.90
64685;DHT22;51109;47.414;18.954;2024-03-17T05:56:06;8.40;99.90
64685;DHT22;51109;47.414;18.954;2024-03-17T05:58:35;8.40;99.90
64685;DHT22;51109;47.414;18.954;2024-03-17T06:01:04;8.20;99.90
64685;DHT22;51109;47.414;18.954;2024-03-17T06:03:30;8.40;99.90
64685;DHT22;51109;47.414;18.954;2024-03-17T06:05:58;8.30;99.90
64685;DHT22;51109;47.414;18.954;2024-03-17T06:08:25;8.40;99.90
64685;DHT22;51109;47.414;18.954;2024-03-17T06:10:50;8.40;99.90
64685;DHT22;51109;47.414;18.954;2024-03-17T06:13:16;8.30;99.90
64685;DHT22;51109;47.414;18.954;2024-03-17T06:15:43;8.40;99.90
64685;DHT22;51109;47.414;18.954;2024-03-17T06:18:11;8.50;99.90
64685;DHT22;51109;47.414;18.954;2024-03-17T06:20:44;8.70;99.90
64685;DHT22;51109;47.414;18.954;2024-03-17T06:23:11;8.50;99.90
64685;DHT22;51109;47.414;18.954;2024-03-17T06:25:40;8.50;99.90
64685;DHT22;51109;47.414;18.954;2024-03-17T06:28:08;8.40;99.90
64685;DHT22;51109;47.414;18.954;2024-03-17T06:30:35;8.50;99.90
64685;DHT22;51109;47.414;18.954;2024-03-17T06:33:03;8.70;99.90
64685;DHT22;51109;47.414;18.954;2024-03-17T06:35:29;8.70;99.90
64685;DHT22;51109;47.414;18.954;2024-03-17T06:37:59;8.70;99.90
64685;DHT22;51109;47.414;18.954;2024-03-17T06:40:25;8.70;99.90
64685;DHT22;51109;47.414;18.954;2024-03-17T06:42:51;8.80;99.90
64685;DHT22;51109;47.414;18.954;2024-03-17T06:45:19;8.80;99.90
64685;DHT22;51109;47.414;18.954;2024-03-17T06:47:47;8.80;99.90
64685;DHT22;51109;47.414;18.954;2024-03-17T06:50:13;8.90;99.90
64685;DHT22;51109;47.414;18.954;2024-03-17T06:52:40;9.00;99.90
64685;DHT22;51109;47.414;18.954;2024-03-17T06:55:06;9.00;99.90
64685;DHT22;51109;47.414;18.954;2024-03-17T06:57:33;9.00;99.90
64685;DHT22;51109;47.414;18.954;2024-03-17T07:00:03;9.00;99.90
64685;DHT22;51109;47.414;18.954;2024-03-17T07:02:32;9.10;99.90
64685;DHT22;51109;47.414;18.954;2024-03-17T07:04:58;9.20;99.90
64685;DHT22;51109;47.414;18.954;2024-03-17T07:07:27;9.10;99.90
64685;DHT22;51109;47.414;18.954;2024-03-17T07:09:53;9.30;99.90
64685;DHT22;51109;47.414;18.954;2024-03-17T07:12:20;9.30;99.90
64685;DHT22;51109;47.414;18.954;2024-03-17T07:14:46;9.30;99.90
64685;DHT22;51109;47.414;18.954;2024-03-17T07:17:15;9.30;99.90
64685;DHT22;51109;47.414;18.954;2024-03-17T07:19:40;9.30;99.90
64685;DHT22;51109;47.414;18.954;2024-03-17T07:22:06;9.50;99.90
64685;DHT22;51109;47.414;18.954;2024-03-17T07:24:32;9.60;99.90
64685;DHT22;51109;47.414;18.954;2024-03-17T07:26:59;9.60;99.90
64685;DHT22;51109;47.414;18.954;2024-03-17T07:29:24;9.70;99.90
64685;DHT22;51109;47.414;18.954;2024-03-17T07:31:50;9.90;99.90
64685;DHT22;51109;47.414;18.954;2024-03-17T07:34:16;9.90;99.90
64685;DHT22;51109;47.414;18.954;2024-03-17T07:36:42;10.00;99.90
64685;DHT22;51109;47.414;18.954;2024-03-17T07:39:08;10.00;99.90
64685;DHT22;51109;47.414;18.954;2024-03-17T07:41:33;10.00;99.90
64685;DHT22;51109;47.414;18.954;2024-03-17T07:43:59;10.10;99.90
64685;DHT22;51109;47.414;18.954;2024-03-17T07:46:25;9.90;99.90
64685;DHT22;51109;47.414;18.954;2024-03-17T07:48:51;10.00;99.90
64685;DHT22;51109;47.414;18.954;2024-03-17T07:51:17;10.20;99.90
64685;DHT22;51109;47.414;18.954;2024-03-17T07:53:44;10.10;99.90
64685;DHT22;51109;47.414;18.954;2024-03-17T07:56:12;10.30;99.90
64685;DHT22;51109;47.414;18.954;2024-03-17T07:58:40;10.30;99.90
64685;DHT22;51109;47.414;18.954;2024-03-17T08:01:10;10.30;99.90
64685;DHT22;51109;47.414;18.954;2024-03-17T08:03:39;10.40;99.90
64685;DHT22;51109;47.414;18.954;2024-03-17T08:06:06;10.30;99.90
64685;DHT22;51109;47.414;18.954;2024-03-17T08:08:33;10.40;99.90
64685;DHT22;51109;47.414;18.954;2024-03-17T08:10:59;10.70;99.90
64685;DHT22;51109;47.414;18.954;2024-03-17T08:13:25;10.60;99.90
64685;DHT22;51109;47.414;18.954;2024-03-17T08:16:04;10.70;99.90
64685;DHT22;51109;47.414;18.954;2024-03-17T08:18:34;10.80;99.90
64685;DHT22;51109;47.414;18.954;2024-03-17T08:21:01;10.70;99.90
64685;DHT22;51109;47.414;18.954;2024-03-17T08:23:27;10.80;99.90
64685;DHT22;51109;47.414;18.954;2024-03-17T08:25:57;10.70;99.90
64685;DHT22;51109;47.414;18.954;2024-03-17T08:28:24;10.80;99.90
64685;DHT22;51109;47.414;18.954;2024-03-17T08:31:03;10.70;99.90
64685;DHT22;51109;47.414;18.954;2024-03-17T08:33:30;11.00;99.90
64685;DHT22;51109;47.414;18.954;2024-03-17T08:35:58;10.90;99.90
64685;DHT22;51109;47.414;18.954;2024-03-17T08:38:25;10.90;99.90
64685;DHT22;51109;47.414;18.954;2024-03-17T08:40:55;10.90;99.90
64685;DHT22;51109;47.414;18.954;2024-03-17T08:43:21;10.70;99.90
64685;DHT22;51109;47.414;18.954;2024-03-17T08:46:02;10.70;99.90
64685;DHT22;51109;47.414;18.954;2024-03-17T08:48:30;10.60;99.90
64685;DHT22;51109;47.414;18.954;2024-03-17T08:50:56;11.00;99.90
64685;DHT22;51109;47.414;18.954;2024-03-17T08:53:23;11.00;99.90
64685;DHT22;51109;47.414;18.954;2024-03-17T08:55:49;11.00;99.90
64685;DHT22;51109;47.414;18.954;2024-03-17T08:58:15;10.90;99.90
64685;DHT22;51109;47.414;18.954;2024-03-17T09:00:42;10.80;99.90
64685;DHT22;51109;47.414;18.954;2024-03-17T09:03:08;10.80;99.90
64685;DHT22;51109;47.414;18.954;2024-03-17T09:05:42;10.90;99.90
64685;DHT22;51109;47.414;18.954;2024-03-17T09:10:41;11.10;99.90
64685;DHT22;51109;47.414;18.954;2024-03-17T09:13:13;11.00;99.90
64685;DHT22;51109;47.414;18.954;2024-03-17T09:15:40;11.00;99.90
64685;DHT22;51109;47.414;18.954;2024-03-17T09:18:06;11.00;99.90
64685;DHT22;51109;47.414;18.954;2024-03-17T09:20:32;11.00;99.90
64685;DHT22;51109;47.414;18.954;2024-03-17T09:22:58;10.90;99.90
64685;DHT22;51109;47.414;18.954;2024-03-17T09:25:24;10.90;99.90
64685;DHT22;51109;47.414;18.954;2024-03-17T09:27:50;10.90;99.90
64685;DHT22;51109;47.414;18.954;2024-03-17T09:30:16;11.10;99.90
64685;DHT22;51109;47.414;18.954;2024-03-17T09:32:42;11.30;99.90
64685;DHT22;51109;47.414;18.954;2024-03-17T09:35:08;11.60;99.90
64685;DHT22;51109;47.414;18.954;2024-03-17T09:37:35;11.40;99.90
64685;DHT22;51109;47.414;18.954;2024-03-17T09:40:01;11.30;99.90
64685;DHT22;51109;47.414;18.954;2024-03-17T09:42:27;11.40;99.90
64685;DHT22;51109;47.414;18.954;2024-03-17T09:44:53;11.60;99.90
64685;DHT22;51109;47.414;18.954;2024-03-17T09:47:23;11.80;99.90
64685;DHT22;51109;47.414;18.954;2024-03-17T09:49:50;11.90;99.90
64685;DHT22;51109;47.414;18.954;2024-03-17T09:52:21;11.90;99.90
64685;DHT22;51109;47.414;18.954;2024-03-17T09:55:01;12.10;99.90
64685;DHT22;51109;47.414;18.954;2024-03-17T09:57:28;12.20;99.90
64685;DHT22;51109;47.414;18.954;2024-03-17T09:59:55;12.10;99.90
64685;DHT22;51109;47.414;18.954;2024-03-17T10:02:22;12.10;99.90
64685;DHT22;51109;47.414;18.954;2024-03-17T10:04:48;12.10;99.90
64685;DHT22;51109;47.414;18.954;2024-03-17T10:07:14;12.00;99.90
64685;DHT22;51109;47.414;18.954;2024-03-17T10:09:43;12.00;99.90
64685;DHT22;51109;47.414;18.954;2024-03-17T10:12:28;12.20;99.90
64685;DHT22;51109;47.414;18.954;2024-03-17T10:14:58;11.90;99.90
64685;DHT22;51109;47.414;18.954;2024-03-17T10:17:32;11.90;99.90
64685;DHT22;51109;47.414;18.954;2024-03-17T10:20:17;11.70;99.90
64685;DHT22;51109;47.414;18.954;2024-03-17T10:23:06;11.80;99.90
64685;DHT22;51109;47.414;18.954;2024-03-17T10:25:36;12.00;99.90
64685;DHT22;51109;47.414;18.954;2024-03-17T10:28:13;12.00;99.90
64685;DHT22;51109;47.414;18.954;2024-03-17T10:30:39;12.30;99.90
64685;DHT22;51109;47.414;18.954;2024-03-17T10:33:06;12.40;99.90
64685;DHT22;51109;47.414;18.954;2024-03-17T10:35:35;12.40;99.90
64685;DHT22;51109;47.414;18.954;2024-03-17T10:38:05;12.50;99.90
64685;DHT22;51109;47.414;18.954;2024-03-17T10:40:32;12.50;99.90
64685;DHT22;51109;47.414;18.954;2024-03-17T10:43:02;12.30;99.90
64685;DHT22;51109;47.414;18.954;2024-03-17T10:45:28;12.60;99.90
64685;DHT22;51109;47.414;18.954;2024-03-17T10:48:00;12.60;99.90
64685;DHT22;51109;47.414;18.954;2024-03-17T10:50:36;12.60;99.90
64685;DHT22;51109;47.414;18.954;2024-03-17T10:53:05;12.50;99.90
64685;DHT22;51109;47.414;18.954;2024-03-17T10:55:44;12.70;99.90
64685;DHT22;51109;47.414;18.954;2024-03-17T10:58:40;12.30;99.90
64685;DHT22;51109;47.414;18.954;2024-03-17T11:01:14;12.50;99.90
64685;DHT22;51109;47.414;18.954;2024-03-17T11:03:41;12.40;99.90
64685;DHT22;51109;47.414;18.954;2024-03-17T11:06:09;12.60;99.90
64685;DHT22;51109;47.414;18.954;2024-03-17T11:08:36;12.60;99.90
64685;DHT22;51109;47.414;18.954;2024-03-17T11:11:03;12.70;99.90
64685;DHT22;51109;47.414;18.954;2024-03-17T11:13:31;12.60;99.90
64685;DHT22;51109;47.414;18.954;2024-03-17T11:15:58;12.60;99.90
64685;DHT22;51109;47.414;18.954;2024-03-17T11:21:24;12.70;99.90
64685;DHT22;51109;47.414;18.954;2024-03-17T11:24:18;12.60;99.90
64685;DHT22;51109;47.414;18.954;2024-03-17T11:26:45;12.50;99.90
64685;DHT22;51109;47.414;18.954;2024-03-17T11:29:30;12.70;99.90
64685;DHT22;51109;47.414;18.954;2024-03-17T11:31:58;12.70;99.90
64685;DHT22;51109;47.414;18.954;2024-03-17T11:34:30;13.00;99.90
64685;DHT22;51109;47.414;18.954;2024-03-17T11:36:57;13.00;99.90
64685;DHT22;51109;47.414;18.954;2024-03-17T11:39:49;12.80;99.90
64685;DHT22;51109;47.414;18.954;2024-03-17T11:42:16;12.80;99.90
64685;DHT22;51109;47.414;18.954;2024-03-17T11:44:44;12.70;99.90
64685;DHT22;51109;47.414;18.954;2024-03-17T11:47:19;12.70;99.90
64685;DHT22;51109;47.414;18.954;2024-03-17T11:49:44;12.90;99.90
64685;DHT22;51109;47.414;18.954;2024-03-17T11:52:15;13.20;99.90
64685;DHT22;51109;47.414;18.954;2024-03-17T11:54:46;13.40;99.90
64685;DHT22;51109;47.414;18.954;2024-03-17T11:57:19;13.30;99.90
64685;DHT22;51109;47.414;18.954;2024-03-17T11:59:48;13.10;99.90
64685;DHT22;51109;47.414;18.954;2024-03-17T12:02:29;12.90;99.90
64685;DHT22;51109;47.414;18.954;2024-03-17T12:05:00;13.20;99.90
64685;DHT22;51109;47.414;18.954;2024-03-17T12:07:26;13.40;99.90
64685;DHT22;51109;47.414;18.954;2024-03-17T12:09:54;13.20;99.90
64685;DHT22;51109;47.414;18.954;2024-03-17T12:12:22;13.60;99.90
64685;DHT22;51109;47.414;18.954;2024-03-17T12:14:50;13.60;99.90
64685;DHT22;51109;47.414;18.954;2024-03-17T12:17:23;13.50;99.90
64685;DHT22;51109;47.414;18.954;2024-03-17T12:19:49;13.40;99.90
64685;DHT22;51109;47.414;18.954;2024-03-17T12:22:25;13.40;99.90
64685;DHT22;51109;47.414;18.954;2024-03-17T12:24:54;13.60;99.90
64685;DHT22;51109;47.414;18.954;2024-03-17T12:27:25;13.60;99.90
64685;DHT22;51109;47.414;18.954;2024-03-17T12:29:52;13.50;99.90
64685;DHT22;51109;47.414;18.954;2024-03-17T12:32:24;13.50;99.90
64685;DHT22;51109;47.414;18.954;2024-03-17T12:34:52;13.50;99.90
64685;DHT22;51109;47.414;18.954;2024-03-17T12:37:20;13.50;99.90
64685;DHT22;51109;47.414;18.954;2024-03-17T12:39:46;13.70;99.90
64685;DHT22;51109;47.414;18.954;2024-03-17T12:42:24;13.70;99.90
64685;DHT22;51109;47.414;18.954;2024-03-17T12:47:22;13.20;99.90
64685;DHT22;51109;47.414;18.954;2024-03-17T12:49:55;13.50;99.90
64685;DHT22;51109;47.414;18.954;2024-03-17T12:52:26;13.70;99.90
64685;DHT22;51109;47.414;18.954;2024-03-17T12:57:50;13.50;99.90
64685;DHT22;51109;47.414;18.954;2024-03-17T13:00:36;13.80;99.90
64685;DHT22;51109;47.414;18.954;2024-03-17T13:03:04;13.80;99.90
64685;DHT22;51109;47.414;18.954;2024-03-17T13:05:31;13.50;99.90
64685;DHT22;51109;47.414;18.954;2024-03-17T13:07:57;13.50;99.90
64685;DHT22;51109;47.414;18.954;2024-03-17T13:10:27;13.50;99.90
64685;DHT22;51109;47.414;18.954;2024-03-17T13:13:04;13.80;99.90
64685;DHT22;51109;47.414;18.954;2024-03-17T13:15:31;13.60;99.90
64685;DHT22;51109;47.414;18.954;2024-03-17T13:17:58;13.60;99.90
64685;DHT22;51109;47.414;18.954;2024-03-17T13:20:24;13.70;99.90
64685;DHT22;51109;47.414;18.954;2024-03-17T13:22:50;13.50;99.90
64685;DHT22;51109;47.414;18.954;2024-03-17T13:25:20;13.40;99.90
64685;DHT22;51109;47.414;18.954;2024-03-17T13:27:49;13.40;99.90
64685;DHT22;51109;47.414;18.954;2024-03-17T13:30:20;13.30;99.90
64685;DHT22;51109;47.414;18.954;2024-03-17T13:32:48;13.30;99.90
64685;DHT22;51109;47.414;18.954;2024-03-17T13:35:20;13.30;99.90
64685;DHT22;51109;47.414;18.954;2024-03-17T13:37:47;13.10;99.90
64685;DHT22;51109;47.414;18.954;2024-03-17T13:40:14;13.30;99.90
64685;DHT22;51109;47.414;18.954;2024-03-17T13:42:52;13.20;99.90
64685;DHT22;51109;47.414;18.954;2024-03-17T13:45:18;13.20;99.90
64685;DHT22;51109;47.414;18.954;2024-03-17T13:47:57;13.20;99.90
64685;DHT22;51109;47.414;18.954;2024-03-17T13:50:24;13.00;99.90
64685;DHT22;51109;47.414;18.954;2024-03-17T13:52:50;12.80;99.90
64685;DHT22;51109;47.414;18.954;2024-03-17T13:55:21;12.80;99.90
64685;DHT22;51109;47.414;18.954;2024-03-17T13:57:50;12.70;99.90
64685;DHT22;51109;47.414;18.954;2024-03-17T14:00:17;12.60;99.90
64685;DHT22;51109;47.414;18.954;2024-03-17T14:02:50;12.80;99.90
64685;DHT22;51109;47.414;18.954;2024-03-17T14:05:17;12.60;99.90
64685;DHT22;51109;47.414;18.954;2024-03-17T14:07:43;12.60;99.90
64685;DHT22;51109;47.414;18.954;2024-03-17T14:10:11;12.60;99.90
64685;DHT22;51109;47.414;18.954;2024-03-17T14:12:38;12.50;99.90
64685;DHT22;51109;47.414;18.954;2024-03-17T14:15:08;12.50;99.90
64685;DHT22;51109;47.414;18.954;2024-03-17T14:17:38;12.60;99.90
64685;DHT22;51109;47.414;18.954;2024-03-17T14:20:05;12.50;99.90
64685;DHT22;51109;47.414;18.954;2024-03-17T14:22:40;12.40;99.90
64685;DHT22;51109;47.414;18.954;2024-03-17T14:25:25;12.40;99.90
64685;DHT22;51109;47.414;18.954;2024-03-17T14:27:51;12.50;99.90
64685;DHT22;51109;47.414;18.954;2024-03-17T14:30:19;12.60;99.90
64685;DHT22;51109;47.414;18.954;2024-03-17T14:32:45;12.50;99.90
64685;DHT22;51109;47.414;18.954;2024-03-17T14:35:14;12.60;99.90
64685;DHT22;51109;47.414;18.954;2024-03-17T14:37:41;12.50;99.90
64685;DHT22;51109;47.414;18.954;2024-03-17T14:40:09;12.40;99.90
64685;DHT22;51109;47.414;18.954;2024-03-17T14:42:43;12.40;99.90
64685;DHT22;51109;47.414;18.954;2024-03-17T14:45:10;12.30;99.90
64685;DHT22;51109;47.414;18.954;2024-03-17T14:47:36;12.30;99.90
64685;DHT22;51109;47.414;18.954;2024-03-17T14:50:02;12.30;99.90
64685;DHT22;51109;47.414;18.954;2024-03-17T14:52:28;12.30;99.90
64685;DHT22;51109;47.414;18.954;2024-03-17T14:54:54;12.30;99.90
64685;DHT22;51109;47.414;18.954;2024-03-17T14:57:22;12.20;99.90
64685;DHT22;51109;47.414;18.954;2024-03-17T14:59:48;12.00;99.90
64685;DHT22;51109;47.414;18.954;2024-03-17T15:02:14;12.20;99.90
64685;DHT22;51109;47.414;18.954;2024-03-17T15:04:41;12.00;99.90
64685;DHT22;51109;47.414;18.954;2024-03-17T15:07:07;12.00;99.90
64685;DHT22;51109;47.414;18.954;2024-03-17T15:09:35;12.00;99.90
64685;DHT22;51109;47.414;18.954;2024-03-17T15:12:01;12.10;99.90
64685;DHT22;51109;47.414;18.954;2024-03-17T15:14:29;12.00;99.90
64685;DHT22;51109;47.414;18.954;2024-03-17T15:16:57;12.00;99.90
64685;DHT22;51109;47.414;18.954;2024-03-17T15:19:23;12.00;99.90
64685;DHT22;51109;47.414;18.954;2024-03-17T15:21:49;12.10;99.90
64685;DHT22;51109;47.414;18.954;2024-03-17T15:24:15;12.00;99.90
64685;DHT22;51109;47.414;18.954;2024-03-17T15:26:41;11.80;99.90
64685;DHT22;51109;47.414;18.954;2024-03-17T15:29:07;11.80;99.90
64685;DHT22;51109;47.414;18.954;2024-03-17T15:31:33;11.80;99.90
64685;DHT22;51109;47.414;18.954;2024-03-17T15:33:59;11.80;99.90
64685;DHT22;51109;47.414;18.954;2024-03-17T15:36:25;11.70;99.90
64685;DHT22;51109;47.414;18.954;2024-03-17T15:38:51;11.60;99.90